Afton, California
Current Conditions -  °F | °C
As of 6:53 AM on Monday 22 Dec 2014 (Local Time) from KOVE Reporting Station
Clear Clear  
Wind Chill: 50°   Ceiling: Unl
Heat Index: 50°   Visibility: 10mi
Dew Point: 48°   Wind: 3mph
Humidity: 93%   Direction: 310°NW
Pressure: 30.28"   Gusts: NA
Location:  39.4608°N, 121.937°W
Report Text: KOVE 221453Z AUTO 31003KT 10SM CLR 10/09 A3028 RMK AO2 SLP254 T01000089 53000
Loading
Personal Weather Stations






























Interactive Weather Map New forecast layout! Learn more

10-Day Weather Forecast

Advertisements
Track Severe Weather on mobile